createdAt,value
2024-02-27T00:02:23.780Z,5.73
2024-02-27T00:04:51.466Z,5.37
2024-02-27T00:07:20.329Z,6.07
2024-02-27T00:09:48.061Z,5.33
2024-02-27T00:12:16.959Z,5.50
2024-02-27T00:14:44.750Z,5.97
2024-02-27T00:17:12.411Z,9.33
2024-02-27T00:19:40.185Z,5.67
2024-02-27T00:22:08.028Z,5.33
2024-02-27T00:24:35.726Z,8.60
2024-02-27T00:27:03.481Z,4.03
2024-02-27T00:29:33.335Z,7.60
2024-02-27T00:32:00.994Z,8.13
2024-02-27T00:34:28.692Z,3.97
2024-02-27T00:36:56.424Z,4.63
2024-02-27T00:39:24.108Z,3.13
2024-02-27T00:41:51.746Z,8.10
2024-02-27T00:44:19.359Z,5.67
2024-02-27T00:46:47.066Z,6.50
2024-02-27T00:49:14.755Z,6.43
2024-02-27T00:51:42.449Z,6.47
2024-02-27T00:54:10.921Z,8.93
2024-02-27T00:56:38.573Z,8.47
2024-02-27T00:59:06.204Z,7.40
2024-02-27T01:01:33.932Z,5.60
2024-02-27T01:04:01.557Z,5.67
2024-02-27T01:06:29.250Z,7.50
2024-02-27T01:08:56.990Z,7.57
2024-02-27T01:11:24.735Z,5.57
2024-02-27T01:13:52.446Z,6.20
2024-02-27T01:16:22.204Z,6.70
2024-02-27T01:18:49.924Z,8.70
2024-02-27T01:21:18.690Z,9.67
2024-02-27T01:23:46.568Z,7.57
2024-02-27T01:26:14.184Z,9.73
2024-02-27T01:28:41.857Z,10.03
2024-02-27T01:31:09.484Z,7.67
2024-02-27T01:33:37.531Z,6.90
2024-02-27T01:36:05.559Z,4.33
2024-02-27T01:38:33.312Z,5.63
2024-02-27T01:41:01.103Z,5.77
2024-02-27T01:43:28.797Z,8.40
2024-02-27T01:46:16.300Z,7.87
2024-02-27T01:48:45.275Z,5.57
2024-02-27T01:51:14.456Z,9.70
2024-02-27T01:53:43.531Z,6.53
2024-02-27T01:56:12.758Z,5.33
2024-02-27T01:58:40.587Z,4.20
2024-02-27T02:01:09.398Z,4.27
2024-02-27T02:03:39.677Z,4.67
2024-02-27T02:06:08.152Z,5.60
2024-02-27T02:08:36.380Z,5.37
2024-02-27T02:11:05.702Z,4.53
2024-02-27T02:13:33.624Z,6.10
2024-02-27T02:16:01.841Z,6.60
2024-02-27T02:18:29.773Z,6.17
2024-02-27T02:20:57.478Z,5.30
2024-02-27T02:23:25.254Z,5.90
2024-02-27T02:25:52.900Z,4.57
2024-02-27T02:28:20.659Z,5.23
2024-02-27T02:30:48.308Z,5.43
2024-02-27T02:33:16.100Z,7.77
2024-02-27T02:35:46.796Z,3.90
2024-02-27T02:38:14.643Z,5.37
2024-02-27T02:40:42.267Z,6.10
2024-02-27T02:43:09.954Z,4.37
2024-02-27T02:45:37.745Z,5.40
2024-02-27T02:48:05.979Z,3.97
2024-02-27T02:50:34.152Z,5.00
2024-02-27T02:53:01.854Z,4.47
2024-02-27T02:55:29.530Z,4.37
2024-02-27T02:57:57.171Z,3.93
2024-02-27T03:00:24.956Z,8.30
2024-02-27T03:02:52.622Z,4.67
2024-02-27T03:05:20.285Z,4.37
2024-02-27T03:07:47.969Z,4.57
2024-02-27T03:10:15.604Z,5.57
2024-02-27T03:12:44.849Z,3.93
2024-02-27T03:15:12.713Z,5.27
2024-02-27T03:17:40.466Z,4.10
2024-02-27T03:20:11.031Z,5.33
2024-02-27T03:22:38.987Z,5.80
2024-02-27T03:25:07.350Z,5.40
2024-02-27T03:27:35.564Z,5.33
2024-02-27T03:30:03.720Z,6.37
2024-02-27T03:32:31.427Z,4.43
2024-02-27T03:34:59.191Z,5.87
2024-02-27T03:37:26.917Z,3.33
2024-02-27T03:39:54.573Z,3.93
2024-02-27T03:42:22.300Z,3.17
2024-02-27T03:44:50.054Z,3.53
2024-02-27T03:47:17.807Z,3.27
2024-02-27T03:49:45.734Z,3.07
2024-02-27T03:52:13.372Z,4.87
2024-02-27T03:54:41.117Z,6.80
2024-02-27T03:57:11.362Z,3.60
2024-02-27T03:59:40.096Z,3.87
2024-02-27T04:02:08.689Z,5.10
2024-02-27T04:04:36.368Z,4.43
2024-02-27T04:07:04.176Z,3.73
2024-02-27T04:09:31.864Z,2.93
2024-02-27T04:11:59.686Z,2.87
2024-02-27T04:14:27.271Z,4.63
2024-02-27T04:16:54.957Z,4.83
2024-02-27T04:19:22.711Z,3.80
2024-02-27T04:21:50.587Z,4.33
2024-02-27T04:24:18.293Z,4.07
2024-02-27T04:26:45.947Z,2.67
2024-02-27T04:29:13.634Z,9.13
2024-02-27T04:31:45.331Z,5.37
2024-02-27T04:34:13.143Z,3.33
2024-02-27T04:36:46.112Z,5.17
2024-02-27T04:39:14.525Z,3.27
2024-02-27T04:41:42.111Z,2.97
2024-02-27T04:44:11.409Z,3.73
2024-02-27T04:46:39.094Z,3.87
2024-02-27T04:49:06.857Z,4.70
2024-02-27T04:51:34.642Z,5.47
2024-02-27T04:54:02.343Z,3.70
2024-02-27T04:56:30.108Z,5.17
2024-02-27T04:58:57.700Z,4.27
2024-02-27T05:01:25.345Z,5.30
2024-02-27T05:03:53.838Z,6.50
2024-02-27T05:06:21.691Z,3.40
2024-02-27T05:08:49.416Z,4.60
2024-02-27T05:11:17.073Z,4.70
2024-02-27T05:13:44.672Z,4.23
2024-02-27T05:16:12.294Z,5.13
2024-02-27T05:18:40.681Z,4.70
2024-02-27T05:21:08.466Z,5.13
2024-02-27T05:23:36.123Z,6.13
2024-02-27T05:26:03.796Z,3.77
2024-02-27T05:28:31.401Z,5.03
2024-02-27T05:30:59.103Z,5.27
2024-02-27T05:33:26.839Z,5.43
2024-02-27T05:35:54.524Z,5.37
2024-02-27T05:38:22.107Z,4.93
2024-02-27T05:40:49.771Z,7.53
2024-02-27T05:43:17.410Z,4.30
2024-02-27T05:45:45.067Z,2.80
2024-02-27T05:48:12.809Z,4.90
2024-02-27T05:50:40.475Z,3.07
2024-02-27T05:53:08.045Z,4.43
2024-02-27T05:55:35.722Z,3.83
2024-02-27T05:58:03.358Z,3.90
2024-02-27T06:00:31.026Z,5.87
2024-02-27T06:02:58.758Z,3.17
2024-02-27T06:05:26.873Z,4.50
2024-02-27T06:07:54.502Z,4.53
2024-02-27T06:10:22.109Z,4.67
2024-02-27T06:12:49.789Z,3.87
2024-02-27T06:15:18.182Z,6.63
2024-02-27T06:17:45.881Z,3.67
2024-02-27T06:20:32.563Z,5.40
2024-02-27T06:23:00.192Z,3.03
2024-02-27T06:25:27.914Z,2.97
2024-02-27T06:27:55.650Z,5.43
2024-02-27T06:30:24.115Z,2.30
2024-02-27T06:32:51.813Z,3.93
2024-02-27T06:35:19.913Z,2.67
2024-02-27T06:37:49.963Z,2.47
2024-02-27T06:40:18.022Z,5.00
2024-02-27T06:42:45.596Z,2.60
2024-02-27T06:45:15.386Z,1.87
2024-02-27T06:47:44.353Z,2.73
2024-02-27T06:50:12.275Z,2.50
2024-02-27T06:52:39.920Z,3.27
2024-02-27T06:55:07.917Z,2.37
2024-02-27T06:57:35.606Z,6.73
2024-02-27T07:00:06.391Z,2.90
2024-02-27T07:02:35.120Z,4.23
2024-02-27T07:05:03.262Z,5.43
2024-02-27T07:07:31.074Z,3.83
2024-02-27T07:09:58.795Z,3.37
2024-02-27T07:12:26.533Z,2.10
2024-02-27T07:14:54.722Z,2.00
2024-02-27T07:17:24.475Z,3.17
2024-02-27T07:19:52.105Z,3.77
2024-02-27T07:22:19.822Z,4.37
2024-02-27T07:24:47.452Z,4.47
2024-02-27T07:27:15.289Z,4.13
2024-02-27T07:29:42.994Z,4.77
2024-02-27T07:32:12.306Z,8.77
2024-02-27T07:34:40.015Z,9.67
2024-02-27T07:37:08.063Z,4.37
2024-02-27T07:39:35.762Z,6.03
2024-02-27T07:42:04.183Z,8.63
2024-02-27T07:44:31.866Z,7.93
2024-02-27T07:46:59.492Z,10.20
2024-02-27T07:49:27.667Z,5.83
2024-02-27T07:51:55.897Z,10.30
2024-02-27T07:54:24.043Z,7.13
2024-02-27T07:56:51.656Z,6.37
2024-02-27T07:59:19.350Z,9.90
2024-02-27T08:01:47.030Z,6.87
2024-02-27T08:04:14.916Z,16.20
2024-02-27T08:06:43.662Z,8.63
2024-02-27T08:09:11.676Z,11.87
2024-02-27T08:11:39.375Z,13.17
2024-02-27T08:14:07.039Z,7.90
2024-02-27T08:16:34.757Z,8.40
2024-02-27T08:19:06.155Z,8.77
2024-02-27T08:21:34.916Z,13.57
2024-02-27T08:24:03.750Z,8.13
2024-02-27T08:26:31.605Z,8.63
2024-02-27T08:28:59.236Z,7.90
2024-02-27T08:31:27.083Z,7.47
2024-02-27T08:33:56.012Z,9.97
2024-02-27T08:36:26.474Z,11.43
2024-02-27T08:38:54.277Z,3.13
2024-02-27T08:41:23.056Z,9.33
2024-02-27T08:43:51.212Z,5.20
2024-02-27T08:46:22.011Z,5.10
2024-02-27T08:48:51.387Z,7.23
2024-02-27T08:51:19.512Z,4.97
2024-02-27T08:53:48.245Z,4.83
2024-02-27T08:56:15.934Z,6.40
2024-02-27T08:58:43.607Z,5.40
2024-02-27T09:01:12.112Z,3.03
2024-02-27T09:03:42.092Z,2.10
2024-02-27T09:06:11.026Z,1.50
2024-02-27T09:08:38.662Z,1.67
2024-02-27T09:11:06.277Z,1.50
2024-02-27T09:13:33.879Z,1.80
2024-02-27T09:16:01.573Z,2.10
2024-02-27T09:18:29.347Z,2.90
2024-02-27T09:20:57.010Z,4.43
2024-02-27T09:23:24.654Z,2.57
2024-02-27T09:25:52.262Z,3.00
2024-02-27T09:28:19.838Z,2.20
2024-02-27T09:30:47.552Z,2.30
2024-02-27T09:33:16.047Z,2.27
2024-02-27T09:35:44.395Z,4.60
2024-02-27T09:38:12.010Z,5.47
2024-02-27T09:40:42.851Z,3.17
2024-02-27T09:43:14.831Z,4.93
2024-02-27T09:45:42.865Z,2.70
2024-02-27T09:48:11.421Z,2.80
2024-02-27T09:50:39.355Z,3.33
2024-02-27T09:53:07.731Z,2.57
2024-02-27T09:55:37.455Z,2.30
2024-02-27T09:58:05.764Z,4.53
2024-02-27T10:00:33.666Z,2.27
2024-02-27T10:03:02.058Z,2.97
2024-02-27T10:05:29.906Z,3.17
2024-02-27T10:07:58.127Z,2.00
2024-02-27T10:10:26.230Z,3.10
2024-02-27T10:12:53.833Z,6.03
2024-02-27T10:15:21.536Z,3.07
2024-02-27T10:17:49.523Z,2.70
2024-02-27T10:20:19.581Z,3.00
2024-02-27T10:22:47.448Z,5.30
2024-02-27T10:25:20.412Z,3.10
2024-02-27T10:27:48.155Z,3.63
2024-02-27T10:30:16.668Z,2.63
2024-02-27T10:32:45.304Z,4.87
2024-02-27T10:35:15.998Z,1.93
2024-02-27T10:37:44.791Z,3.70
2024-02-27T10:40:13.823Z,4.43
2024-02-27T10:42:42.641Z,8.63
2024-02-27T10:45:11.148Z,3.70
2024-02-27T10:47:39.014Z,2.53
2024-02-27T10:50:07.931Z,3.77
2024-02-27T10:52:36.647Z,2.23
2024-02-27T10:55:04.954Z,2.70
2024-02-27T10:57:35.435Z,3.60
2024-02-27T11:00:04.135Z,3.33
2024-02-27T11:02:34.048Z,2.20
2024-02-27T11:05:02.910Z,2.93
2024-02-27T11:07:31.269Z,4.53
2024-02-27T11:10:00.434Z,3.37
2024-02-27T11:12:31.020Z,3.37
2024-02-27T11:15:01.579Z,3.77
2024-02-27T11:17:30.090Z,3.47
2024-02-27T11:19:58.683Z,3.33
2024-02-27T11:22:27.351Z,3.90
2024-02-27T11:24:55.446Z,5.00
2024-02-27T11:27:24.700Z,4.20
2024-02-27T11:29:53.573Z,3.70
2024-02-27T11:32:21.524Z,5.77
2024-02-27T11:34:49.658Z,4.87
2024-02-27T11:37:24.053Z,3.33
2024-02-27T11:39:52.362Z,3.47
2024-02-27T11:42:42.207Z,4.03
2024-02-27T11:45:14.475Z,7.17
2024-02-27T11:48:02.602Z,5.80
2024-02-27T11:50:56.647Z,5.20
2024-02-27T11:53:33.125Z,6.10
2024-02-27T11:56:00.847Z,5.63
2024-02-27T11:58:28.587Z,5.50
2024-02-27T12:00:56.435Z,7.43
2024-02-27T12:03:24.147Z,6.20
2024-02-27T12:05:59.595Z,5.23
2024-02-27T12:08:27.250Z,6.43
2024-02-27T12:10:55.008Z,7.10
2024-02-27T12:13:24.372Z,7.47
2024-02-27T12:15:59.537Z,6.00
2024-02-27T12:18:27.415Z,6.87
2024-02-27T12:21:02.069Z,8.13
2024-02-27T12:23:33.410Z,7.67
2024-02-27T12:26:01.855Z,9.33
2024-02-27T12:28:30.615Z,9.33
2024-02-27T12:30:58.454Z,7.93
2024-02-27T12:33:26.280Z,9.43
2024-02-27T12:35:55.009Z,7.70
2024-02-27T12:38:22.636Z,7.00
2024-02-27T12:40:49.979Z,6.27
2024-02-27T12:43:17.475Z,10.30
2024-02-27T12:45:51.726Z,10.97
2024-02-27T12:48:19.291Z,8.73
2024-02-27T12:50:48.355Z,8.73
2024-02-27T12:53:15.666Z,9.37
2024-02-27T12:55:42.935Z,10.43
2024-02-27T12:58:10.159Z,9.23
2024-02-27T13:00:38.188Z,10.20
2024-02-27T13:03:06.116Z,9.73
2024-02-27T13:05:34.776Z,9.77
2024-02-27T13:08:06.494Z,9.93
2024-02-27T13:10:35.380Z,7.60
2024-02-27T13:13:19.644Z,9.70
2024-02-27T13:15:49.087Z,12.30
2024-02-27T13:18:17.273Z,10.67
2024-02-27T13:20:46.564Z,9.30
2024-02-27T13:23:21.637Z,8.53
2024-02-27T13:25:54.868Z,10.83
2024-02-27T13:28:22.192Z,12.27
2024-02-27T13:30:49.816Z,9.50
2024-02-27T13:33:17.964Z,8.63
2024-02-27T13:35:45.822Z,8.67
2024-02-27T13:38:13.197Z,10.73
2024-02-27T13:40:40.873Z,11.90
2024-02-27T13:43:08.301Z,9.93
2024-02-27T13:45:35.600Z,8.20
2024-02-27T13:48:04.647Z,10.87
2024-02-27T13:50:31.955Z,9.93
2024-02-27T13:52:59.568Z,13.70
2024-02-27T13:55:27.829Z,11.47
2024-02-27T13:57:55.168Z,9.33
2024-02-27T14:00:22.729Z,12.43
2024-02-27T14:02:50.201Z,9.20
2024-02-27T14:05:17.726Z,9.03
2024-02-27T14:07:44.999Z,10.30
2024-02-27T14:10:12.287Z,11.37
2024-02-27T14:12:39.831Z,8.87
2024-02-27T14:15:09.925Z,7.33
2024-02-27T14:17:37.406Z,8.93
2024-02-27T14:20:05.985Z,8.60
2024-02-27T14:22:33.316Z,13.30
2024-02-27T14:25:02.336Z,10.20
2024-02-27T14:27:29.816Z,9.57
2024-02-27T14:29:57.225Z,11.17
2024-02-27T14:32:26.624Z,9.57
2024-02-27T14:34:55.881Z,9.53
2024-02-27T14:37:23.160Z,9.67
2024-02-27T14:39:50.489Z,8.97
2024-02-27T14:42:17.913Z,9.30
2024-02-27T14:44:45.263Z,9.30
2024-02-27T14:47:12.916Z,13.03
2024-02-27T14:49:43.650Z,10.27
2024-02-27T14:52:11.409Z,9.73
2024-02-27T14:54:38.739Z,9.20
2024-02-27T14:57:06.432Z,10.10
2024-02-27T14:59:33.708Z,11.00
2024-02-27T15:02:04.173Z,11.50
2024-02-27T15:04:32.553Z,10.00
2024-02-27T15:07:00.176Z,10.10
2024-02-27T15:09:27.625Z,11.87
2024-02-27T15:11:54.937Z,10.93
2024-02-27T15:14:23.963Z,9.97
2024-02-27T15:16:51.566Z,12.10
2024-02-27T15:19:19.284Z,12.27
2024-02-27T15:21:47.958Z,11.30
2024-02-27T15:24:18.322Z,10.40
2024-02-27T15:26:47.584Z,10.77
2024-02-27T15:29:15.562Z,12.00
2024-02-27T15:31:43.412Z,9.43
2024-02-27T15:34:11.094Z,12.10
2024-02-27T15:36:38.687Z,11.70
2024-02-27T15:39:06.676Z,10.80
2024-02-27T15:41:34.044Z,12.40
2024-02-27T15:44:08.250Z,14.73
2024-02-27T15:46:39.694Z,14.23
2024-02-27T15:49:07.084Z,11.67
2024-02-27T15:51:34.453Z,11.57
2024-02-27T15:54:01.819Z,60.37
2024-02-27T15:56:29.091Z,17.40
2024-02-27T15:59:06.432Z,16.67
2024-02-27T16:01:33.939Z,19.87
2024-02-27T16:04:27.647Z,12.90
2024-02-27T16:07:09.423Z,13.20
2024-02-27T16:09:38.118Z,15.27
2024-02-27T16:12:15.022Z,14.53
2024-02-27T16:14:47.715Z,14.30
2024-02-27T16:17:15.140Z,14.30
2024-02-27T16:19:42.527Z,18.97
2024-02-27T16:22:12.006Z,12.70
2024-02-27T16:24:39.361Z,15.33
2024-02-27T16:27:07.057Z,17.87
2024-02-27T16:29:34.415Z,17.13
2024-02-27T16:32:02.199Z,13.13
2024-02-27T16:34:29.692Z,13.97
2024-02-27T16:37:01.864Z,12.47
2024-02-27T16:39:29.500Z,12.30
2024-02-27T16:41:57.082Z,15.63
2024-02-27T16:44:24.493Z,18.30
2024-02-27T16:46:52.069Z,11.23
2024-02-27T16:49:19.479Z,17.77
2024-02-27T16:51:46.996Z,13.53
2024-02-27T16:54:14.389Z,20.60
2024-02-27T16:56:41.692Z,20.73
2024-02-27T16:59:09.046Z,13.33
2024-02-27T17:01:36.353Z,11.63
2024-02-27T17:04:03.750Z,13.97
2024-02-27T17:06:31.384Z,13.17
2024-02-27T17:08:58.860Z,14.63
2024-02-27T17:11:27.051Z,12.90
2024-02-27T17:13:54.485Z,11.30
2024-02-27T17:16:21.789Z,13.30
2024-02-27T17:18:49.262Z,14.03
2024-02-27T17:21:16.753Z,16.33
2024-02-27T17:23:44.043Z,16.10
2024-02-27T17:26:12.742Z,18.57
2024-02-27T17:28:40.013Z,13.40
2024-02-27T17:31:07.487Z,14.20
2024-02-27T17:33:35.870Z,14.50
2024-02-27T17:36:04.386Z,15.77
2024-02-27T17:38:31.705Z,17.53
2024-02-27T17:40:59.824Z,16.33
2024-02-27T17:43:27.238Z,15.20
2024-02-27T17:45:54.694Z,15.50
2024-02-27T17:48:22.911Z,16.30
2024-02-27T17:50:50.263Z,16.00
2024-02-27T17:53:17.682Z,16.53
2024-02-27T17:55:45.072Z,18.47
2024-02-27T17:58:12.284Z,16.20
2024-02-27T18:00:39.702Z,17.30
2024-02-27T18:03:07.124Z,18.13
2024-02-27T18:05:34.468Z,18.93
2024-02-27T18:08:01.788Z,19.33
2024-02-27T18:10:29.139Z,15.37
2024-02-27T18:12:56.446Z,18.40
2024-02-27T18:15:26.016Z,18.73
2024-02-27T18:17:53.340Z,16.17
2024-02-27T18:20:20.744Z,18.63
2024-02-27T18:22:48.068Z,16.67
2024-02-27T18:25:15.395Z,18.57
2024-02-27T18:27:42.697Z,19.23
2024-02-27T18:30:11.970Z,19.13
2024-02-27T18:32:40.069Z,18.33
2024-02-27T18:35:07.972Z,21.17
2024-02-27T18:37:35.266Z,18.07
2024-02-27T18:40:03.977Z,24.53
2024-02-27T18:42:31.302Z,19.60
2024-02-27T18:44:58.641Z,18.93
2024-02-27T18:47:26.113Z,17.20
2024-02-27T18:49:54.148Z,21.27
2024-02-27T18:52:21.485Z,20.60
2024-02-27T18:54:48.982Z,20.70
2024-02-27T18:57:16.590Z,20.70
2024-02-27T18:59:43.931Z,25.87
2024-02-27T19:02:11.188Z,25.33
2024-02-27T19:04:38.509Z,22.97
2024-02-27T19:07:06.341Z,22.70
2024-02-27T19:09:34.120Z,21.90
2024-02-27T19:12:01.759Z,22.50
2024-02-27T19:14:29.650Z,20.57
2024-02-27T19:16:57.629Z,22.07
2024-02-27T19:19:25.344Z,20.40
2024-02-27T19:21:52.682Z,26.70
2024-02-27T19:24:21.345Z,22.60
2024-02-27T19:26:48.961Z,21.33
2024-02-27T19:29:16.303Z,22.10
2024-02-27T19:31:43.569Z,23.20
2024-02-27T19:34:10.826Z,22.70
2024-02-27T19:36:38.119Z,23.83
2024-02-27T19:39:07.095Z,23.17
2024-02-27T19:41:35.446Z,23.93
2024-02-27T19:44:03.311Z,28.37
2024-02-27T19:46:33.074Z,22.13
2024-02-27T19:49:00.697Z,28.50
2024-02-27T19:51:28.073Z,26.50
2024-02-27T19:53:55.596Z,24.60
2024-02-27T19:56:22.943Z,25.80
2024-02-27T19:58:50.227Z,27.30
2024-02-27T20:01:17.733Z,27.37
2024-02-27T20:03:45.121Z,25.77
2024-02-27T20:06:14.018Z,23.87
2024-02-27T20:08:41.387Z,26.83
2024-02-27T20:11:09.336Z,28.60
2024-02-27T20:13:36.612Z,25.37
2024-02-27T20:16:04.298Z,25.13
2024-02-27T20:18:31.607Z,27.57
2024-02-27T20:21:02.763Z,28.70
2024-02-27T20:23:30.211Z,28.87
2024-02-27T20:25:57.981Z,26.50
2024-02-27T20:28:28.082Z,28.87
2024-02-27T20:30:55.362Z,27.60
2024-02-27T20:33:23.330Z,29.63
2024-02-27T20:35:50.712Z,26.20
2024-02-27T20:38:18.816Z,28.07
2024-02-27T20:40:49.555Z,27.60
2024-02-27T20:43:16.845Z,29.27
2024-02-27T20:45:44.855Z,28.83
2024-02-27T20:48:13.213Z,27.33
2024-02-27T20:50:40.588Z,28.43
2024-02-27T20:53:08.600Z,31.63
2024-02-27T20:55:36.045Z,28.77
2024-02-27T20:58:03.300Z,27.67
2024-02-27T21:00:30.596Z,29.80
2024-02-27T21:02:57.863Z,28.63
2024-02-27T21:05:25.157Z,32.20
2024-02-27T21:07:56.225Z,27.00
2024-02-27T21:10:24.803Z,31.97
2024-02-27T21:12:52.860Z,31.07
2024-02-27T21:15:20.263Z,28.77
2024-02-27T21:17:47.600Z,29.87
2024-02-27T21:20:14.979Z,31.30
2024-02-27T21:22:42.244Z,29.07
2024-02-27T21:25:09.999Z,30.40
2024-02-27T21:27:37.368Z,31.93
2024-02-27T21:30:05.254Z,30.07
2024-02-27T21:32:32.499Z,29.23
2024-02-27T21:34:59.773Z,29.50
2024-02-27T21:37:27.034Z,33.63
2024-02-27T21:39:54.849Z,30.40
2024-02-27T21:42:22.616Z,27.33
2024-02-27T21:44:49.948Z,27.10
2024-02-27T21:47:17.185Z,31.50
2024-02-27T21:49:45.733Z,28.47
2024-02-27T21:52:13.005Z,29.47
2024-02-27T21:54:40.687Z,33.07
2024-02-27T21:57:08.339Z,31.60
2024-02-27T21:59:36.025Z,32.60
2024-02-27T22:02:03.686Z,30.77
2024-02-27T22:04:31.297Z,30.17
2024-02-27T22:06:58.572Z,34.07
2024-02-27T22:09:26.330Z,29.97
2024-02-27T22:11:53.969Z,30.00
2024-02-27T22:14:21.584Z,30.77
2024-02-27T22:16:50.884Z,31.67
2024-02-27T22:19:18.530Z,28.50
2024-02-27T22:21:47.185Z,31.30
2024-02-27T22:24:20.217Z,34.47
2024-02-27T22:26:48.053Z,30.37
2024-02-27T22:29:15.666Z,29.60
2024-02-27T22:31:43.429Z,29.97
2024-02-27T22:34:11.143Z,31.27
2024-02-27T22:36:38.904Z,31.13
2024-02-27T22:39:09.046Z,28.20
2024-02-27T22:41:37.001Z,28.20
2024-02-27T22:44:04.643Z,27.97
2024-02-27T22:46:32.220Z,30.00
2024-02-27T22:49:00.140Z,31.10
2024-02-27T22:51:27.973Z,28.13
2024-02-27T22:53:55.674Z,28.57
2024-02-27T22:56:23.365Z,29.40
2024-02-27T22:58:50.612Z,27.57
2024-02-27T23:01:18.279Z,28.20
2024-02-27T23:03:45.995Z,29.33
2024-02-27T23:06:13.807Z,29.80
2024-02-27T23:08:41.433Z,29.13
2024-02-27T23:11:10.234Z,28.97
2024-02-27T23:13:39.006Z,32.03
2024-02-27T23:16:06.869Z,29.80
2024-02-27T23:18:34.657Z,22.93
2024-02-27T23:21:03.688Z,32.33
2024-02-27T23:23:31.370Z,33.63
2024-02-27T23:25:59.683Z,33.63
2024-02-27T23:28:27.334Z,28.10
2024-02-27T23:30:55.118Z,33.27
2024-02-27T23:33:22.824Z,31.20
2024-02-27T23:35:51.824Z,30.47
2024-02-27T23:38:19.562Z,31.77
2024-02-27T23:40:47.551Z,31.70
2024-02-27T23:43:15.156Z,31.87
2024-02-27T23:45:43.365Z,33.20
2024-02-27T23:48:11.109Z,31.73
2024-02-27T23:50:38.693Z,30.20
2024-02-27T23:53:06.613Z,32.73
2024-02-27T23:55:37.532Z,29.67
2024-02-27T23:58:05.164Z,29.70
